Time;durP1;ratioP1;P1;durP2;ratioP2;P2;SDS_P1;SDS_P2;PMS_P1;PMS_P2;Temp;Humidity;BMP_temperature;BMP_pressure;BME280_temperature;BME280_humidity;BME280_pressure;Samples;Min_cycle;Max_cycle;Signal;HPM_P1;HPM_P2
2023/05/24 00:01:06;;;;;;;8.47;5.53;;;14.50;99.90;;;;;;4998018;28;20213;-69
2023/05/24 00:03:33;;;;;;;7.03;5.43;;;14.40;99.90;;;;;;5015711;28;20225;-69
2023/05/24 00:05:59;;;;;;;5.70;5.23;;;14.40;99.90;;;;;;5015727;28;20597;-70
2023/05/24 00:08:25;;;;;;;9.30;5.47;;;14.30;99.90;;;;;;5015375;28;20464;-70
2023/05/24 00:10:51;;;;;;;6.03;4.63;;;14.20;99.90;;;;;;5015685;28;20429;-69
2023/05/24 00:13:16;;;;;;;5.60;5.00;;;14.30;99.90;;;;;;5015441;28;20229;-70
2023/05/24 00:15:42;;;;;;;9.03;5.20;;;14.20;99.90;;;;;;5015537;28;20175;-70
2023/05/24 00:18:07;;;;;;;5.57;4.90;;;14.20;99.90;;;;;;5015259;28;20202;-69
2023/05/24 00:20:33;;;;;;;5.77;5.10;;;14.20;99.90;;;;;;5015245;28;20269;-69
2023/05/24 00:22:58;;;;;;;6.63;5.07;;;14.30;99.90;;;;;;5015320;28;20195;-70
2023/05/24 00:25:24;;;;;;;5.00;4.60;;;14.30;99.90;;;;;;5015505;28;20179;-70
2023/05/24 00:27:49;;;;;;;6.17;5.57;;;14.20;99.90;;;;;;5015349;28;20206;-71
2023/05/24 00:30:15;;;;;;;5.97;5.37;;;14.10;99.90;;;;;;5015001;28;20198;-70
2023/05/24 00:32:40;;;;;;;5.50;4.80;;;14.00;99.90;;;;;;5015077;28;20234;-69
2023/05/24 00:35:06;;;;;;;5.90;5.30;;;14.00;99.90;;;;;;5015184;28;20212;-70
2023/05/24 00:37:32;;;;;;;5.77;5.17;;;13.90;99.90;;;;;;5015135;28;20660;-70
2023/05/24 00:39:57;;;;;;;6.20;5.57;;;13.90;99.90;;;;;;5014784;28;20210;-69
2023/05/24 00:42:23;;;;;;;5.00;4.50;;;13.80;99.90;;;;;;5015101;28;20197;-69
2023/05/24 00:44:48;;;;;;;5.60;5.00;;;13.80;99.90;;;;;;5015078;28;20196;-71
2023/05/24 00:47:15;;;;;;;6.87;5.43;;;13.90;99.90;;;;;;5014792;28;20183;-70
2023/05/24 00:49:41;;;;;;;5.50;4.90;;;13.90;99.90;;;;;;5014610;28;20254;-70
2023/05/24 00:52:07;;;;;;;5.23;4.73;;;13.90;99.90;;;;;;5014833;28;20528;-69
2023/05/24 00:54:33;;;;;;;6.53;5.73;;;13.90;99.90;;;;;;5013613;28;20425;-70
2023/05/24 00:56:59;;;;;;;7.00;5.50;;;13.90;99.90;;;;;;5014841;28;20436;-69
2023/05/24 00:59:25;;;;;;;5.83;5.27;;;13.80;99.90;;;;;;5014396;28;20442;-69
2023/05/24 01:01:51;;;;;;;5.87;5.10;;;13.80;99.90;;;;;;5014522;28;20229;-70
2023/05/24 01:04:19;;;;;;;5.30;4.53;;;13.80;99.90;;;;;;5014847;28;20498;-69
2023/05/24 01:07:08;;;;;;;5.63;5.00;;;13.80;99.90;;;;;;5014625;28;20163;-70
2023/05/24 01:09:42;;;;;;;6.40;4.40;;;13.80;99.90;;;;;;5014323;28;20918;-70
2023/05/24 01:12:58;;;;;;;5.87;4.83;;;13.80;99.90;;;;;;5014301;28;20449;-70
2023/05/24 01:15:36;;;;;;;6.00;4.80;;;13.70;99.90;;;;;;4988947;28;20437;-70
2023/05/24 01:18:06;;;;;;;7.57;5.40;;;13.80;99.90;;;;;;5014248;28;20997;-70
2023/05/24 01:20:33;;;;;;;13.70;5.97;;;13.80;99.90;;;;;;5014136;28;20467;-70
2023/05/24 01:23:36;;;;;;;6.17;5.13;;;13.80;99.90;;;;;;5014170;28;20495;-70
2023/05/24 01:26:19;;;;;;;5.77;5.27;;;13.60;99.90;;;;;;5014330;28;20499;-69
2023/05/24 01:28:47;;;;;;;6.87;6.13;;;13.60;99.90;;;;;;5013967;28;20830;-71
2023/05/24 01:31:14;;;;;;;5.40;4.90;;;13.50;99.90;;;;;;5014133;28;20426;-70
2023/05/24 01:33:41;;;;;;;5.67;5.17;;;13.50;99.90;;;;;;5014151;28;20429;-70
2023/05/24 01:36:07;;;;;;;4.57;4.13;;;13.50;99.90;;;;;;5014086;28;20931;-70
2023/05/24 01:38:32;;;;;;;6.83;5.23;;;13.60;99.90;;;;;;5013594;28;20480;-70
2023/05/24 01:41:25;;;;;;;7.43;5.43;;;13.60;99.90;;;;;;5013970;28;20179;-69
2023/05/24 01:44:06;;;;;;;6.30;5.47;;;13.50;99.90;;;;;;5013912;28;20202;-69
2023/05/24 01:46:36;;;;;;;7.10;5.10;;;13.50;99.90;;;;;;5013781;28;20426;-70
2023/05/24 01:49:13;;;;;;;5.73;5.23;;;13.60;99.90;;;;;;5013310;28;20434;-70
2023/05/24 01:51:48;;;;;;;7.87;5.50;;;13.50;99.90;;;;;;5013647;28;20457;-70
2023/05/24 01:54:15;;;;;;;5.43;4.93;;;13.50;99.90;;;;;;5013903;28;20934;-69
2023/05/24 01:56:43;;;;;;;7.80;5.90;;;13.40;99.90;;;;;;5013700;28;20433;-71
2023/05/24 01:59:10;;;;;;;8.43;5.23;;;13.40;99.90;;;;;;5013413;28;20461;-70
2023/05/24 02:01:36;;;;;;;8.07;5.73;;;13.50;99.90;;;;;;5013498;28;20500;-71
2023/05/24 02:04:02;;;;;;;10.80;6.07;;;13.50;99.90;;;;;;5013422;28;20421;-70
2023/05/24 02:06:27;;;;;;;7.43;5.33;;;13.50;99.90;;;;;;5013174;28;20919;-70
2023/05/24 02:08:53;;;;;;;8.07;5.20;;;13.60;99.90;;;;;;5013098;28;20430;-70
2023/05/24 02:11:18;;;;;;;10.43;6.27;;;13.60;99.90;;;;;;5013234;28;20265;-70
2023/05/24 02:13:44;;;;;;;11.63;8.00;;;13.50;99.90;;;;;;5013496;28;20229;-70
2023/05/24 02:16:09;;;;;;;5.20;4.70;;;13.60;99.90;;;;;;5013370;28;20644;-70
2023/05/24 02:18:35;;;;;;;8.90;6.33;;;13.60;99.90;;;;;;5012820;28;20698;-70
2023/05/24 02:21:01;;;;;;;6.03;4.87;;;13.60;99.90;;;;;;5013255;28;20175;-70
2023/05/24 02:23:27;;;;;;;13.00;6.13;;;13.60;99.90;;;;;;5013170;28;20175;-70
2023/05/24 02:25:53;;;;;;;8.90;5.03;;;13.50;99.90;;;;;;5013197;28;20464;-70
2023/05/24 02:28:19;;;;;;;6.63;4.70;;;13.50;99.90;;;;;;5012842;28;20522;-70
2023/05/24 02:30:45;;;;;;;8.77;5.40;;;13.50;99.90;;;;;;5013103;28;20501;-71
2023/05/24 02:33:11;;;;;;;10.63;5.10;;;13.50;99.90;;;;;;5012862;28;20241;-70
2023/05/24 02:35:36;;;;;;;7.53;5.23;;;13.50;99.90;;;;;;5012996;28;20823;-70
2023/05/24 02:38:05;;;;;;;8.13;4.90;;;13.60;99.90;;;;;;5012850;28;20171;-70
2023/05/24 02:40:31;;;;;;;6.37;4.57;;;13.70;99.90;;;;;;5012833;28;20210;-70
2023/05/24 02:42:56;;;;;;;12.63;6.23;;;13.60;99.90;;;;;;5012824;28;20946;-70
2023/05/24 02:45:22;;;;;;;7.17;5.47;;;13.40;99.90;;;;;;5012874;28;20179;-70
2023/05/24 02:47:47;;;;;;;7.80;5.00;;;13.50;99.90;;;;;;5012658;28;20166;-70
2023/05/24 02:50:13;;;;;;;11.73;5.47;;;13.50;99.90;;;;;;5012395;28;20608;-70
2023/05/24 02:52:39;;;;;;;11.30;5.17;;;13.50;99.90;;;;;;5012762;28;20198;-70
2023/05/24 02:55:05;;;;;;;10.83;5.33;;;13.40;99.90;;;;;;5012827;28;20190;-69
2023/05/24 02:57:32;;;;;;;9.70;5.47;;;13.30;99.90;;;;;;5012680;28;20267;-69
2023/05/24 02:59:58;;;;;;;8.10;5.97;;;13.30;99.90;;;;;;5012265;28;20453;-70
2023/05/24 03:02:27;;;;;;;8.83;5.53;;;13.10;99.90;;;;;;5012446;28;20445;-70
2023/05/24 03:04:52;;;;;;;7.37;5.33;;;13.10;99.90;;;;;;5012750;28;20646;-70
2023/05/24 03:07:18;;;;;;;7.77;6.30;;;12.90;99.90;;;;;;5012530;28;20433;-70
2023/05/24 03:09:44;;;;;;;7.83;6.37;;;12.90;99.90;;;;;;5012314;28;20183;-69
2023/05/24 03:12:09;;;;;;;10.10;5.97;;;12.90;99.90;;;;;;5012282;28;20210;-71
2023/05/24 03:14:35;;;;;;;19.67;7.37;;;12.90;99.90;;;;;;5012517;28;20179;-70
2023/05/24 03:17:01;;;;;;;9.50;6.67;;;12.90;99.90;;;;;;5011611;28;20179;-69
2023/05/24 03:19:26;;;;;;;6.93;6.23;;;12.90;99.90;;;;;;5012059;28;20205;-70
2023/05/24 03:21:52;;;;;;;8.23;5.20;;;12.90;99.90;;;;;;5012242;28;20610;-70
2023/05/24 03:24:18;;;;;;;10.93;6.30;;;12.80;99.90;;;;;;5012201;28;20246;-70
2023/05/24 03:26:43;;;;;;;10.17;5.27;;;12.80;99.90;;;;;;5012398;28;20206;-69
2023/05/24 03:29:09;;;;;;;8.27;6.10;;;12.80;99.90;;;;;;5012016;28;20222;-70
2023/05/24 03:31:35;;;;;;;9.93;5.97;;;12.80;99.90;;;;;;5012096;28;20236;-70
2023/05/24 03:34:00;;;;;;;13.73;6.70;;;12.80;99.90;;;;;;5012141;28;20450;-70
2023/05/24 03:36:27;;;;;;;9.23;6.40;;;12.70;99.90;;;;;;5012381;28;20522;-69
2023/05/24 03:38:53;;;;;;;9.07;5.50;;;12.80;99.90;;;;;;5011900;28;20257;-70
2023/05/24 03:41:19;;;;;;;9.03;5.47;;;12.80;99.90;;;;;;5012075;28;20414;-71
2023/05/24 03:43:45;;;;;;;12.07;6.20;;;12.80;99.90;;;;;;5012216;28;20437;-70
2023/05/24 03:46:10;;;;;;;6.13;5.50;;;12.70;99.90;;;;;;5012035;28;20174;-70
2023/05/24 03:48:36;;;;;;;6.77;5.13;;;12.80;99.90;;;;;;5011748;28;20671;-71
2023/05/24 03:51:01;;;;;;;15.13;6.10;;;12.80;99.90;;;;;;5012061;28;20171;-70
2023/05/24 03:53:27;;;;;;;9.30;5.83;;;12.80;99.90;;;;;;5012009;28;20266;-70
2023/05/24 03:55:53;;;;;;;8.70;5.10;;;12.70;99.90;;;;;;5011936;28;20175;-70
2023/05/24 03:58:18;;;;;;;8.60;5.90;;;12.70;99.90;;;;;;5011579;28;20230;-70
2023/05/24 04:00:44;;;;;;;10.03;6.30;;;12.70;99.90;;;;;;5011905;28;20225;-70
2023/05/24 04:03:10;;;;;;;8.30;4.83;;;12.70;99.90;;;;;;5011843;28;20209;-70
2023/05/24 04:05:36;;;;;;;6.80;6.07;;;12.70;99.90;;;;;;5011882;28;20171;-70
2023/05/24 04:08:01;;;;;;;12.80;6.00;;;12.70;99.90;;;;;;4994162;28;20515;-69
2023/05/24 04:10:27;;;;;;;9.83;6.30;;;12.70;99.90;;;;;;5011605;28;20178;-69
2023/05/24 04:12:53;;;;;;;17.23;6.90;;;12.80;99.90;;;;;;5011738;28;20214;-70
2023/05/24 04:15:18;;;;;;;12.30;6.03;;;12.80;99.90;;;;;;5011761;28;20246;-70
2023/05/24 04:17:45;;;;;;;10.43;6.50;;;12.80;99.90;;;;;;5011749;28;20540;-70
2023/05/24 04:20:11;;;;;;;11.97;5.93;;;12.80;99.90;;;;;;5011582;28;20581;-69
2023/05/24 04:22:37;;;;;;;9.47;6.67;;;12.70;99.90;;;;;;5011680;28;20434;-70
2023/05/24 04:25:04;;;;;;;12.97;5.77;;;12.70;99.90;;;;;;5011808;28;20939;-70
2023/05/24 04:27:30;;;;;;;11.53;6.63;;;12.70;99.90;;;;;;5011789;28;20433;-70
2023/05/24 04:29:55;;;;;;;11.83;5.67;;;12.60;99.90;;;;;;5014503;28;20417;-70
2023/05/24 04:32:22;;;;;;;9.40;5.73;;;12.60;99.90;;;;;;5015232;28;20190;-69
2023/05/24 04:34:49;;;;;;;11.13;5.90;;;12.70;99.90;;;;;;5015241;28;20217;-70
2023/05/24 04:37:16;;;;;;;10.00;7.10;;;12.70;99.90;;;;;;5015285;28;20441;-70
2023/05/24 04:39:43;;;;;;;10.73;6.53;;;12.60;99.90;;;;;;5014807;28;20535;-71
2023/05/24 04:42:11;;;;;;;9.53;6.30;;;12.60;99.90;;;;;;5015191;28;20496;-69
2023/05/24 04:44:36;;;;;;;12.20;5.50;;;12.60;99.90;;;;;;5014985;28;20422;-70
2023/05/24 04:47:02;;;;;;;7.80;5.93;;;12.60;99.90;;;;;;5015006;28;20410;-70
2023/05/24 04:49:28;;;;;;;16.53;6.03;;;12.60;99.90;;;;;;5014918;28;20234;-70
2023/05/24 04:51:54;;;;;;;10.13;5.80;;;12.60;99.90;;;;;;5014878;28;20445;-70
2023/05/24 04:54:20;;;;;;;9.13;5.70;;;12.60;99.90;;;;;;5014837;28;20163;-70
2023/05/24 04:56:45;;;;;;;11.73;6.30;;;12.70;99.90;;;;;;5014809;28;20433;-71
2023/05/24 04:59:11;;;;;;;12.33;6.33;;;12.70;99.90;;;;;;5014364;28;20217;-70
2023/05/24 05:01:37;;;;;;;9.13;5.40;;;12.80;99.90;;;;;;5014588;28;20241;-70
2023/05/24 05:04:03;;;;;;;10.33;6.50;;;12.70;99.90;;;;;;5014689;28;20175;-70
2023/05/24 05:06:28;;;;;;;11.37;6.00;;;12.70;99.90;;;;;;5014858;28;20472;-70
2023/05/24 05:08:54;;;;;;;9.03;6.80;;;12.70;99.90;;;;;;5014274;28;20256;-70
2023/05/24 05:11:20;;;;;;;13.30;6.73;;;12.70;99.90;;;;;;5014381;28;20179;-71
2023/05/24 05:13:45;;;;;;;8.23;5.90;;;12.70;99.90;;;;;;5014923;28;20194;-69
2023/05/24 05:16:11;;;;;;;11.47;6.13;;;12.70;99.90;;;;;;5014634;28;20210;-69
2023/05/24 05:18:36;;;;;;;11.80;6.33;;;12.80;99.90;;;;;;5014250;28;20206;-69
2023/05/24 05:21:02;;;;;;;12.20;5.70;;;12.80;99.90;;;;;;5014363;28;20454;-69
2023/05/24 05:23:28;;;;;;;8.53;6.60;;;12.80;99.90;;;;;;5014252;28;20530;-69
2023/05/24 05:25:54;;;;;;;10.90;5.70;;;12.80;99.90;;;;;;5013939;28;20229;-69
2023/05/24 05:28:19;;;;;;;7.57;5.50;;;12.70;99.90;;;;;;5013858;28;20820;-69
2023/05/24 05:30:45;;;;;;;11.70;6.27;;;12.70;99.90;;;;;;5014170;28;20248;-69
2023/05/24 05:33:11;;;;;;;10.80;6.00;;;12.70;99.90;;;;;;5014022;28;20191;-69
2023/05/24 05:35:36;;;;;;;10.90;7.37;;;12.70;99.90;;;;;;5013998;28;20175;-69
2023/05/24 05:38:02;;;;;;;7.83;6.10;;;12.70;99.90;;;;;;5013705;28;20269;-69
2023/05/24 05:40:27;;;;;;;7.17;5.30;;;12.90;99.90;;;;;;4995355;28;20177;-69
2023/05/24 05:42:53;;;;;;;9.67;5.97;;;12.90;99.90;;;;;;5013590;28;20205;-69
2023/05/24 05:45:19;;;;;;;7.83;5.53;;;13.00;99.90;;;;;;5013941;28;20202;-68
2023/05/24 05:47:44;;;;;;;8.97;5.20;;;13.10;99.90;;;;;;5013868;28;20171;-69
2023/05/24 05:50:10;;;;;;;24.23;6.80;;;13.10;99.90;;;;;;5013559;28;20253;-69
2023/05/24 05:52:35;;;;;;;8.53;5.80;;;13.00;99.90;;;;;;5013663;28;20272;-69
2023/05/24 05:55:01;;;;;;;10.70;6.63;;;13.00;99.90;;;;;;5013760;28;20167;-69
2023/05/24 05:57:26;;;;;;;14.30;10.33;;;13.00;99.90;;;;;;5013352;28;20175;-69
2023/05/24 05:59:52;;;;;;;10.07;6.37;;;13.10;99.90;;;;;;5013280;28;20230;-69
2023/05/24 06:02:18;;;;;;;11.13;5.90;;;13.20;99.90;;;;;;5013202;28;20208;-69
2023/05/24 06:04:44;;;;;;;9.60;5.97;;;13.40;99.90;;;;;;5013797;28;20183;-69
2023/05/24 06:07:10;;;;;;;12.30;5.40;;;13.50;99.90;;;;;;5012841;28;20699;-69
2023/05/24 06:09:35;;;;;;;10.60;5.63;;;13.40;99.90;;;;;;5013244;28;20418;-69
2023/05/24 06:12:01;;;;;;;7.90;5.17;;;13.60;99.90;;;;;;5013140;28;20234;-69
2023/05/24 06:14:26;;;;;;;8.80;5.80;;;13.80;99.90;;;;;;5013357;28;20554;-69
2023/05/24 06:16:53;;;;;;;13.47;6.17;;;13.90;99.90;;;;;;5013443;28;20167;-69
2023/05/24 06:19:19;;;;;;;5.90;5.27;;;14.10;99.90;;;;;;5013018;28;20234;-69
2023/05/24 06:21:46;;;;;;;10.50;6.37;;;14.30;99.90;;;;;;5013197;28;21053;-69
2023/05/24 06:24:19;;;;;;;10.23;5.67;;;14.30;99.90;;;;;;5013303;28;20432;-69
2023/05/24 06:26:45;;;;;;;9.80;5.17;;;14.20;99.90;;;;;;5013223;28;20429;-69
2023/05/24 06:29:11;;;;;;;12.97;7.70;;;14.30;99.90;;;;;;4995177;28;20421;-69
2023/05/24 06:31:36;;;;;;;11.40;5.97;;;14.40;99.90;;;;;;5013020;28;20966;-69
2023/05/24 06:34:02;;;;;;;10.77;6.07;;;14.50;99.90;;;;;;5012960;28;20179;-69
2023/05/24 06:36:28;;;;;;;9.73;5.90;;;14.50;99.90;;;;;;5013034;28;20178;-69
2023/05/24 06:38:53;;;;;;;7.87;6.33;;;14.50;99.90;;;;;;5012703;28;20194;-69
2023/05/24 06:41:19;;;;;;;9.90;5.90;;;14.60;99.90;;;;;;5012825;28;20175;-69
2023/05/24 06:43:45;;;;;;;7.27;5.00;;;14.60;99.90;;;;;;5013005;28;20220;-69
2023/05/24 06:46:11;;;;;;;13.00;7.67;;;14.60;99.90;;;;;;5012879;28;20245;-69
2023/05/24 06:48:36;;;;;;;16.90;8.23;;;14.70;99.90;;;;;;5012508;28;20462;-69
2023/05/24 06:51:01;;;;;;;8.80;6.17;;;14.90;99.90;;;;;;5012598;28;20167;-69
2023/05/24 06:53:27;;;;;;;18.47;7.30;;;14.90;99.90;;;;;;5012083;28;20652;-69
2023/05/24 06:55:53;;;;;;;8.63;6.30;;;14.90;99.90;;;;;;5012493;28;20456;-69
2023/05/24 06:58:18;;;;;;;9.30;6.87;;;14.90;99.90;;;;;;5012574;28;20198;-69
2023/05/24 07:00:44;;;;;;;11.53;5.90;;;14.90;99.90;;;;;;5012552;28;20711;-69
2023/05/24 07:03:11;;;;;;;10.60;6.13;;;14.90;99.90;;;;;;5012440;28;20261;-69
2023/05/24 07:05:37;;;;;;;10.80;5.73;;;14.80;99.90;;;;;;5012504;28;20189;-69
2023/05/24 07:08:03;;;;;;;12.83;6.53;;;14.70;99.90;;;;;;5012478;28;20422;-69
2023/05/24 07:10:29;;;;;;;10.70;6.87;;;14.60;99.90;;;;;;5012260;28;20241;-69
2023/05/24 07:12:54;;;;;;;14.80;6.40;;;14.50;99.90;;;;;;5012349;28;20260;-69
2023/05/24 07:15:20;;;;;;;10.87;5.73;;;14.20;99.90;;;;;;5012472;28;20174;-69
2023/05/24 07:17:47;;;;;;;11.00;7.73;;;14.20;99.90;;;;;;5012481;28;20687;-69
2023/05/24 07:20:12;;;;;;;9.77;6.67;;;13.90;99.90;;;;;;5012048;28;20205;-69
2023/05/24 07:22:38;;;;;;;11.33;6.73;;;14.00;99.90;;;;;;5012154;28;20442;-69
2023/05/24 07:25:04;;;;;;;17.70;7.30;;;13.90;99.90;;;;;;5012471;28;20179;-69
2023/05/24 07:27:30;;;;;;;9.27;7.10;;;14.00;99.90;;;;;;5012422;28;20511;-69
2023/05/24 07:29:56;;;;;;;10.43;6.07;;;14.00;99.90;;;;;;5012055;28;20492;-69
2023/05/24 07:32:21;;;;;;;8.00;5.20;;;14.00;99.90;;;;;;5012478;28;20734;-69
2023/05/24 07:34:47;;;;;;;7.40;5.80;;;14.10;99.90;;;;;;5012281;28;20237;-69
2023/05/24 07:37:12;;;;;;;12.93;8.73;;;14.20;99.90;;;;;;5012264;28;20563;-69
2023/05/24 07:39:38;;;;;;;8.83;5.93;;;14.30;99.90;;;;;;5011834;28;20213;-69
2023/05/24 07:42:04;;;;;;;11.07;6.37;;;14.30;99.90;;;;;;5011995;28;20201;-69
2023/05/24 07:44:29;;;;;;;9.80;6.60;;;14.40;99.90;;;;;;5012073;28;20588;-69
2023/05/24 07:46:55;;;;;;;9.13;6.33;;;14.30;99.90;;;;;;5012092;28;20426;-69
2023/05/24 07:49:22;;;;;;;14.50;6.87;;;14.40;99.90;;;;;;5011808;28;20197;-69
2023/05/24 07:51:48;;;;;;;10.90;7.10;;;14.60;99.90;;;;;;5012041;28;20442;-69
2023/05/24 07:54:13;;;;;;;10.10;6.40;;;14.50;99.90;;;;;;5011951;28;20565;-69
2023/05/24 07:56:40;;;;;;;8.87;6.83;;;14.50;99.90;;;;;;5011960;28;20440;-69
2023/05/24 07:59:07;;;;;;;11.80;6.60;;;14.50;99.90;;;;;;5011694;28;20715;-69
2023/05/24 08:01:33;;;;;;;8.67;6.40;;;14.50;99.90;;;;;;5011981;28;20861;-69
2023/05/24 08:04:02;;;;;;;12.10;7.00;;;14.50;99.90;;;;;;5013916;28;20425;-69
2023/05/24 08:06:29;;;;;;;7.87;6.70;;;14.50;99.90;;;;;;5015864;28;20786;-69
2023/05/24 08:08:55;;;;;;;8.93;6.80;;;14.50;99.90;;;;;;5015421;28;20496;-69
2023/05/24 08:11:20;;;;;;;10.23;6.23;;;14.40;99.90;;;;;;5015657;28;20844;-69
2023/05/24 08:13:46;;;;;;;10.33;7.00;;;14.60;99.90;;;;;;5015739;28;20433;-69
2023/05/24 08:16:12;;;;;;;8.47;7.03;;;14.90;99.90;;;;;;5015600;28;20167;-69
2023/05/24 08:18:37;;;;;;;8.83;6.40;;;15.30;99.90;;;;;;5015263;28;20202;-69
2023/05/24 08:21:03;;;;;;;9.97;7.43;;;15.30;99.90;;;;;;5015437;28;20178;-69
2023/05/24 08:23:29;;;;;;;12.40;6.60;;;15.10;99.90;;;;;;5015344;28;20175;-69
2023/05/24 08:25:56;;;;;;;13.57;6.63;;;15.20;99.90;;;;;;5015383;28;20253;-69
2023/05/24 08:28:22;;;;;;;11.70;7.13;;;15.20;99.90;;;;;;5015179;28;20418;-69
2023/05/24 08:30:47;;;;;;;14.20;8.30;;;14.80;99.90;;;;;;5015443;28;20427;-69
2023/05/24 08:33:13;;;;;;;8.53;6.40;;;14.70;99.90;;;;;;5015331;28;20232;-69
2023/05/24 08:35:39;;;;;;;8.40;5.63;;;14.80;99.90;;;;;;5015307;28;20179;-69
2023/05/24 08:38:05;;;;;;;10.87;7.10;;;14.90;99.90;;;;;;5015031;28;20167;-69
2023/05/24 08:40:31;;;;;;;9.53;6.60;;;14.90;99.90;;;;;;5014968;28;20710;-69
2023/05/24 08:42:59;;;;;;;9.37;6.40;;;15.00;99.90;;;;;;5015210;28;20541;-69
2023/05/24 08:45:27;;;;;;;7.63;6.70;;;14.70;99.90;;;;;;5015163;28;20171;-69
2023/05/24 08:47:54;;;;;;;12.97;7.23;;;14.30;99.90;;;;;;5014935;28;20926;-69
2023/05/24 08:50:20;;;;;;;7.27;6.40;;;14.20;99.90;;;;;;5014674;28;20417;-69
2023/05/24 08:52:46;;;;;;;6.90;5.33;;;14.50;99.90;;;;;;5014864;28;20961;-69
2023/05/24 08:55:12;;;;;;;8.37;6.60;;;14.80;99.90;;;;;;5014892;28;20175;-69
2023/05/24 08:57:39;;;;;;;11.17;6.83;;;15.00;99.90;;;;;;5014857;28;20449;-69
2023/05/24 09:00:10;;;;;;;12.03;7.13;;;15.00;99.90;;;;;;5014450;28;20544;-69
2023/05/24 09:02:39;;;;;;;9.00;6.77;;;15.00;99.90;;;;;;5014604;28;20468;-69
2023/05/24 09:05:11;;;;;;;16.00;7.40;;;15.00;99.90;;;;;;5014642;28;20420;-69
2023/05/24 09:07:37;;;;;;;12.97;6.77;;;14.90;99.90;;;;;;5014809;28;20513;-69
2023/05/24 09:10:07;;;;;;;9.47;6.53;;;15.20;99.90;;;;;;5014336;28;20516;-69
2023/05/24 09:12:35;;;;;;;15.47;8.80;;;15.70;99.90;;;;;;5014310;28;21001;-69
2023/05/24 09:15:01;;;;;;;10.20;6.40;;;15.50;99.90;;;;;;5013522;28;20422;-69
2023/05/24 09:17:30;;;;;;;9.87;6.73;;;15.60;99.90;;;;;;5014291;28;20475;-69
2023/05/24 09:19:58;;;;;;;12.37;6.10;;;15.70;99.90;;;;;;5014024;28;20978;-69
2023/05/24 09:22:26;;;;;;;8.60;5.70;;;15.60;99.90;;;;;;5014606;28;20453;-69
2023/05/24 09:24:52;;;;;;;8.30;6.03;;;15.80;99.90;;;;;;5014261;28;20923;-69
2023/05/24 09:27:21;;;;;;;12.83;6.83;;;15.80;99.90;;;;;;5014328;28;20417;-69
2023/05/24 09:29:48;;;;;;;11.67;6.70;;;15.90;99.90;;;;;;5013953;28;20428;-69
2023/05/24 09:32:14;;;;;;;11.23;7.30;;;16.00;99.90;;;;;;5014091;28;20805;-69
2023/05/24 09:34:42;;;;;;;13.87;6.30;;;16.10;99.90;;;;;;5014339;28;20425;-69
2023/05/24 09:37:15;;;;;;;8.40;6.03;;;16.10;99.90;;;;;;5014119;28;20426;-69
2023/05/24 09:39:42;;;;;;;8.13;6.57;;;16.00;99.90;;;;;;5013712;28;20445;-69
2023/05/24 09:42:13;;;;;;;11.33;6.67;;;15.90;99.90;;;;;;5013940;28;20816;-69
2023/05/24 09:44:38;;;;;;;9.73;6.70;;;15.90;99.90;;;;;;5013960;28;20418;-69
2023/05/24 09:47:04;;;;;;;7.93;6.57;;;15.70;99.90;;;;;;5013842;28;20422;-69
2023/05/24 09:49:30;;;;;;;13.43;6.47;;;15.40;99.90;;;;;;5013683;28;20746;-69
2023/05/24 09:51:56;;;;;;;11.70;7.40;;;15.50;99.90;;;;;;5013790;28;20234;-69
2023/05/24 09:54:24;;;;;;;8.77;6.90;;;15.30;99.90;;;;;;5013734;28;20862;-69
2023/05/24 09:56:50;;;;;;;10.07;7.00;;;15.40;99.90;;;;;;5013710;28;20468;-69
2023/05/24 09:59:17;;;;;;;9.70;6.30;;;15.70;99.90;;;;;;5013187;28;20457;-69
2023/05/24 10:01:43;;;;;;;10.70;6.73;;;15.50;99.90;;;;;;5013622;28;20238;-69
2023/05/24 10:04:08;;;;;;;12.30;6.77;;;15.70;99.90;;;;;;5013732;28;21085;-69
2023/05/24 10:06:38;;;;;;;10.57;8.63;;;15.70;99.90;;;;;;5013468;28;20653;-69
2023/05/24 10:09:08;;;;;;;9.90;6.23;;;15.70;99.90;;;;;;5013291;28;20523;-69
2023/05/24 10:11:38;;;;;;;10.00;7.00;;;15.80;99.90;;;;;;5013236;28;20492;-69
2023/05/24 10:14:06;;;;;;;9.53;5.80;;;16.00;99.90;;;;;;5013686;28;20418;-69
2023/05/24 10:16:32;;;;;;;10.13;6.20;;;16.00;99.90;;;;;;5013405;28;20422;-69
2023/05/24 10:18:58;;;;;;;15.73;6.83;;;15.80;99.90;;;;;;5013005;28;20680;-69
2023/05/24 10:21:27;;;;;;;9.50;5.60;;;16.20;99.90;;;;;;5013422;28;20545;-69
2023/05/24 10:24:01;;;;;;;9.67;7.00;;;16.00;99.90;;;;;;5013243;28;20918;-69
2023/05/24 10:26:30;;;;;;;10.23;5.80;;;16.10;99.90;;;;;;5013031;28;20418;-69
2023/05/24 10:29:02;;;;;;;12.20;6.70;;;16.20;99.90;;;;;;5012905;28;20421;-69
2023/05/24 10:31:33;;;;;;;9.83;7.20;;;16.10;99.90;;;;;;5013101;28;20967;-69
2023/05/24 10:34:02;;;;;;;14.80;7.00;;;15.80;99.90;;;;;;5013367;28;20444;-69
2023/05/24 10:36:29;;;;;;;10.97;7.13;;;15.60;99.90;;;;;;5013037;28;20811;-69
2023/05/24 10:38:55;;;;;;;8.63;7.30;;;15.60;99.90;;;;;;5012547;28;20552;-69
2023/05/24 10:41:24;;;;;;;10.23;7.10;;;15.60;99.90;;;;;;5012935;28;20453;-69
2023/05/24 10:43:51;;;;;;;10.90;6.50;;;15.10;99.90;;;;;;5012941;28;20822;-69
2023/05/24 10:46:17;;;;;;;11.37;7.00;;;14.90;99.90;;;;;;5012899;28;20525;-69
2023/05/24 10:48:43;;;;;;;13.17;7.10;;;15.00;99.90;;;;;;5012526;28;20505;-69
2023/05/24 10:51:31;;;;;;;14.57;6.63;;;15.00;99.90;;;;;;5012710;28;20290;-69
2023/05/24 10:53:57;;;;;;;8.70;7.53;;;15.00;99.90;;;;;;5012926;28;20590;-69
2023/05/24 10:56:26;;;;;;;10.10;6.43;;;14.70;99.90;;;;;;5012754;28;20452;-69
2023/05/24 10:58:56;;;;;;;14.07;9.37;;;14.70;99.90;;;;;;4994800;28;20540;-69
2023/05/24 11:01:26;;;;;;;12.10;6.90;;;14.90;99.90;;;;;;5012571;28;20771;-69
2023/05/24 11:03:53;;;;;;;14.60;6.83;;;14.90;99.90;;;;;;5012552;28;20421;-69
2023/05/24 11:06:19;;;;;;;16.30;7.03;;;15.00;99.90;;;;;;5012493;28;20413;-69
2023/05/24 11:08:45;;;;;;;10.10;6.70;;;15.00;99.90;;;;;;5012256;28;20838;-69
2023/05/24 11:11:12;;;;;;;7.73;7.00;;;15.20;99.90;;;;;;5012337;28;20425;-69
2023/05/24 11:13:39;;;;;;;18.63;14.60;;;15.40;99.90;;;;;;5053555;22;20538;-64
2023/05/24 11:16:05;;;;;;;13.20;7.10;;;15.30;99.90;;;;;;5012248;28;20429;-64
2023/05/24 11:18:31;;;;;;;10.13;5.53;;;15.40;99.90;;;;;;5012003;28;20819;-64
2023/05/24 11:21:00;;;;;;;10.43;6.37;;;15.50;99.90;;;;;;5012368;28;20422;-64
2023/05/24 11:23:25;;;;;;;12.73;6.83;;;15.40;99.90;;;;;;5012326;28;20199;-64
2023/05/24 11:25:51;;;;;;;10.03;7.20;;;15.40;99.90;;;;;;5012233;28;20413;-64
2023/05/24 11:28:17;;;;;;;7.83;6.73;;;15.40;99.90;;;;;;4994334;28;20543;-64
2023/05/24 11:30:44;;;;;;;8.57;5.80;;;15.40;99.90;;;;;;5012173;28;20179;-64
2023/05/24 11:33:14;;;;;;;15.10;7.40;;;15.80;99.90;;;;;;5012105;28;20444;-64
2023/05/24 11:35:40;;;;;;;8.23;6.40;;;16.30;99.90;;;;;;5012164;28;20449;-64
2023/05/24 11:38:12;;;;;;;10.93;6.20;;;16.60;99.90;;;;;;5012585;28;20450;-63
2023/05/24 11:40:43;;;;;;;11.00;6.10;;;16.60;99.90;;;;;;5016253;28;20464;-64
2023/05/24 11:43:09;;;;;;;11.47;6.07;;;17.20;99.90;;;;;;5016070;28;20465;-64
2023/05/24 11:45:35;;;;;;;9.70;6.57;;;17.70;99.90;;;;;;5016271;28;20421;-64
2023/05/24 11:48:05;;;;;;;8.87;6.20;;;17.80;99.90;;;;;;5016189;28;20903;-65
2023/05/24 11:50:30;;;;;;;9.43;6.07;;;17.90;99.80;;;;;;5015827;28;20308;-64
2023/05/24 11:53:02;;;;;;;9.90;6.50;;;18.20;99.20;;;;;;5015961;28;20429;-64
2023/05/24 11:55:27;;;;;;;6.80;5.90;;;19.50;95.50;;;;;;5015918;28;20166;-64
2023/05/24 11:57:58;;;;;;;7.27;6.00;;;21.20;91.00;;;;;;5015894;28;20410;-64
2023/05/24 12:00:24;;;;;;;10.03;6.10;;;24.40;77.40;;;;;;5015792;28;20621;-64
2023/05/24 12:02:51;;;;;;;9.30;6.70;;;25.40;68.30;;;;;;5015820;28;20437;-64
2023/05/24 12:05:17;;;;;;;7.00;5.60;;;25.70;60.70;;;;;;5015826;28;20953;-64
2023/05/24 12:07:47;;;;;;;8.10;5.87;;;27.10;56.50;;;;;;5015726;28;20509;-64
2023/05/24 12:10:16;;;;;;;9.30;6.30;;;29.40;50.50;;;;;;5015363;28;20446;-65
2023/05/24 12:12:43;;;;;;;9.20;6.40;;;30.40;46.40;;;;;;5015486;28;20493;-64
2023/05/24 12:15:10;;;;;;;7.33;6.10;;;30.20;44.20;;;;;;5015766;28;20444;-64
2023/05/24 12:17:36;;;;;;;6.63;5.10;;;30.20;43.90;;;;;;5015583;28;20594;-64
2023/05/24 12:20:02;;;;;;;9.27;6.20;;;29.60;41.80;;;;;;5015164;28;20461;-64
2023/05/24 12:22:30;;;;;;;8.43;5.70;;;29.70;39.20;;;;;;5015580;28;20520;-65
2023/05/24 12:24:56;;;;;;;7.20;5.60;;;30.20;37.90;;;;;;5015615;28;21606;-65
2023/05/24 12:27:26;;;;;;;11.50;4.57;;;31.90;35.40;;;;;;5015677;28;20410;-65
2023/05/24 12:29:52;;;;;;;6.53;4.97;;;33.20;33.80;;;;;;5015316;28;20472;-65
2023/05/24 12:32:17;;;;;;;10.30;5.57;;;33.20;31.50;;;;;;5015485;28;20469;-64
2023/05/24 12:34:43;;;;;;;5.87;5.27;;;32.70;32.00;;;;;;5015273;28;20183;-64
2023/05/24 12:37:11;;;;;;;7.63;5.00;;;33.00;31.50;;;;;;5015078;28;20233;-65
2023/05/24 12:39:38;;;;;;;8.57;4.80;;;34.00;31.40;;;;;;5014788;28;20974;-65
2023/05/24 12:42:04;;;;;;;7.70;5.53;;;34.10;29.50;;;;;;5015006;28;20484;-65